Terminal Aerodrome Forecast
Issued by NWS

Home | Current Version | Previous Version | Text Only | Print | Product List | Glossary On
Versions: 1 2 3 4 5 6 7 8 9 10 11 12 13 14 15 16 17
250
FTUS43 KAPX 071120
TAFPLN
TAF
KPLN 071120Z 0712/0812 19006KT P6SM OVC070 WS020/21030KT
     FM072000 17010KT P6SM OVC014
     FM080100 18003KT 5SM BR OVC010
     FM080900 VRB02KT 2SM BR OVC008=

USA.gov is the U.S. government's official web portal to all federal, state and local government web resources and services.